sensor_id;sensor_type;location;lat;lon;timestamp;pressure;altitude;pressure_sealevel;temperature;humidity
19108;BME280;9686;48.832;9.126;2024-01-15T00:02:14;97180.38;;;0.26;100.00
19108;BME280;9686;48.832;9.126;2024-01-15T00:04:40;97163.94;;;0.13;100.00
19108;BME280;9686;48.832;9.126;2024-01-15T00:07:06;97163.94;;;0.13;100.00
19108;BME280;9686;48.832;9.126;2024-01-15T00:09:31;97163.53;;;0.40;100.00
19108;BME280;9686;48.832;9.126;2024-01-15T00:11:56;97159.78;;;0.20;100.00
19108;BME280;9686;48.832;9.126;2024-01-15T00:14:22;97155.69;;;0.29;100.00
19108;BME280;9686;48.832;9.126;2024-01-15T00:16:48;97157.06;;;0.11;100.00
19108;BME280;9686;48.832;9.126;2024-01-15T00:19:15;97164.31;;;0.35;100.00
19108;BME280;9686;48.832;9.126;2024-01-15T00:21:41;97164.09;;;0.22;100.00
19108;BME280;9686;48.832;9.126;2024-01-15T00:24:06;97153.63;;;0.10;100.00
19108;BME280;9686;48.832;9.126;2024-01-15T00:26:31;97155.25;;;0.04;100.00
19108;BME280;9686;48.832;9.126;2024-01-15T00:28:56;97146.56;;;-0.03;100.00
19108;BME280;9686;48.832;9.126;2024-01-15T00:31:22;97152.53;;;-0.03;100.00
19108;BME280;9686;48.832;9.126;2024-01-15T00:33:47;97146.69;;;0.03;100.00
19108;BME280;9686;48.832;9.126;2024-01-15T00:36:12;97150.94;;;0.01;100.00
19108;BME280;9686;48.832;9.126;2024-01-15T00:38:39;97150.84;;;-0.02;100.00
19108;BME280;9686;48.832;9.126;2024-01-15T00:41:05;97152.63;;;0.01;100.00
19108;BME280;9686;48.832;9.126;2024-01-15T00:43:30;97159.44;;;0.00;100.00
19108;BME280;9686;48.832;9.126;2024-01-15T00:45:55;97157.06;;;0.11;100.00
19108;BME280;9686;48.832;9.126;2024-01-15T00:48:20;97160.22;;;0.47;100.00
19108;BME280;9686;48.832;9.126;2024-01-15T00:50:46;97158.75;;;0.60;100.00
19108;BME280;9686;48.832;9.126;2024-01-15T00:53:11;97159.63;;;0.62;100.00
19108;BME280;9686;48.832;9.126;2024-01-15T00:55:37;97152.94;;;0.72;100.00
19108;BME280;9686;48.832;9.126;2024-01-15T00:58:03;97152.88;;;0.69;100.00
19108;BME280;9686;48.832;9.126;2024-01-15T01:00:28;97153.91;;;0.78;100.00
19108;BME280;9686;48.832;9.126;2024-01-15T01:02:53;97154.78;;;0.79;100.00
19108;BME280;9686;48.832;9.126;2024-01-15T01:05:19;97150.38;;;0.73;100.00
19108;BME280;9686;48.832;9.126;2024-01-15T01:07:44;97154.69;;;0.74;100.00
19108;BME280;9686;48.832;9.126;2024-01-15T01:10:09;97154.78;;;0.80;100.00
19108;BME280;9686;48.832;9.126;2024-01-15T01:12:34;97158.91;;;0.72;100.00
19108;BME280;9686;48.832;9.126;2024-01-15T01:15:00;97157.34;;;0.79;100.00
19108;BME280;9686;48.832;9.126;2024-01-15T01:17:25;97165.06;;;0.82;100.00
19108;BME280;9686;48.832;9.126;2024-01-15T01:19:51;97149.00;;;0.95;100.00
19108;BME280;9686;48.832;9.126;2024-01-15T01:22:16;97142.22;;;0.99;100.00
19108;BME280;9686;48.832;9.126;2024-01-15T01:24:41;97142.25;;;1.02;100.00
19108;BME280;9686;48.832;9.126;2024-01-15T01:27:06;97144.91;;;1.08;100.00
19108;BME280;9686;48.832;9.126;2024-01-15T01:29:32;97135.53;;;1.10;100.00
19108;BME280;9686;48.832;9.126;2024-01-15T01:31:57;97142.47;;;1.17;100.00
19108;BME280;9686;48.832;9.126;2024-01-15T01:34:22;97130.47;;;1.16;100.00
19108;BME280;9686;48.832;9.126;2024-01-15T01:36:48;97141.53;;;1.10;100.00
19108;BME280;9686;48.832;9.126;2024-01-15T01:39:13;97139.00;;;1.12;100.00
19108;BME280;9686;48.832;9.126;2024-01-15T01:41:38;97149.75;;;0.88;100.00
19108;BME280;9686;48.832;9.126;2024-01-15T01:44:04;97151.50;;;0.89;100.00
19108;BME280;9686;48.832;9.126;2024-01-15T01:46:30;97142.91;;;0.87;100.00
19108;BME280;9686;48.832;9.126;2024-01-15T01:48:56;97147.50;;;1.08;100.00
19108;BME280;9686;48.832;9.126;2024-01-15T01:51:24;97148.25;;;1.02;100.00
19108;BME280;9686;48.832;9.126;2024-01-15T01:53:50;97148.41;;;1.13;100.00
19108;BME280;9686;48.832;9.126;2024-01-15T01:56:17;97140.78;;;1.19;100.00
19108;BME280;9686;48.832;9.126;2024-01-15T01:58:44;97139.97;;;1.23;100.00
19108;BME280;9686;48.832;9.126;2024-01-15T02:01:10;97145.13;;;1.24;100.00
19108;BME280;9686;48.832;9.126;2024-01-15T02:03:37;97139.13;;;1.22;100.00
19108;BME280;9686;48.832;9.126;2024-01-15T02:06:02;97141.84;;;1.33;100.00
19108;BME280;9686;48.832;9.126;2024-01-15T02:08:28;97146.78;;;1.19;100.00
19108;BME280;9686;48.832;9.126;2024-01-15T02:10:54;97141.53;;;1.10;100.00
19108;BME280;9686;48.832;9.126;2024-01-15T02:13:20;97138.41;;;1.33;100.00
19108;BME280;9686;48.832;9.126;2024-01-15T02:15:45;97134.28;;;1.45;100.00
19108;BME280;9686;48.832;9.126;2024-01-15T02:18:11;97129.22;;;1.53;100.00
19108;BME280;9686;48.832;9.126;2024-01-15T02:20:36;97127.28;;;1.32;100.00
19108;BME280;9686;48.832;9.126;2024-01-15T02:25:33;97138.09;;;1.10;100.00
19108;BME280;9686;48.832;9.126;2024-01-15T02:27:59;97127.34;;;1.37;100.00
19108;BME280;9686;48.832;9.126;2024-01-15T02:30:25;97122.31;;;1.47;100.00
19108;BME280;9686;48.832;9.126;2024-01-15T02:32:50;97125.78;;;1.52;100.00
19108;BME280;9686;48.832;9.126;2024-01-15T02:35:16;97120.63;;;1.51;100.00
19108;BME280;9686;48.832;9.126;2024-01-15T02:37:41;97122.34;;;1.52;100.00
19108;BME280;9686;48.832;9.126;2024-01-15T02:40:07;97112.84;;;1.42;100.00
19108;BME280;9686;48.832;9.126;2024-01-15T02:42:32;97119.66;;;1.40;100.00
19108;BME280;9686;48.832;9.126;2024-01-15T02:44:57;97123.13;;;1.43;100.00
19108;BME280;9686;48.832;9.126;2024-01-15T02:47:23;97112.94;;;1.51;100.00
19108;BME280;9686;48.832;9.126;2024-01-15T02:49:48;97121.38;;;1.41;100.00
19108;BME280;9686;48.832;9.126;2024-01-15T02:52:13;97118.69;;;1.30;100.00
19108;BME280;9686;48.832;9.126;2024-01-15T02:54:39;97111.94;;;1.37;100.00
19108;BME280;9686;48.832;9.126;2024-01-15T02:57:04;97119.59;;;1.34;100.00
19108;BME280;9686;48.832;9.126;2024-01-15T02:59:29;97106.81;;;1.40;100.00
19108;BME280;9686;48.832;9.126;2024-01-15T03:01:54;97115.25;;;1.30;100.00
19108;BME280;9686;48.832;9.126;2024-01-15T03:04:20;97107.69;;;1.39;100.00
19108;BME280;9686;48.832;9.126;2024-01-15T03:06:45;97106.78;;;1.37;100.00
19108;BME280;9686;48.832;9.126;2024-01-15T03:09:10;97106.84;;;1.43;100.00
19108;BME280;9686;48.832;9.126;2024-01-15T03:11:39;97104.22;;;1.35;100.00
19108;BME280;9686;48.832;9.126;2024-01-15T03:14:04;97097.25;;;1.28;100.00
19108;BME280;9686;48.832;9.126;2024-01-15T03:16:29;97101.72;;;1.41;100.00
19108;BME280;9686;48.832;9.126;2024-01-15T03:18:55;97105.47;;;1.03;100.00
19108;BME280;9686;48.832;9.126;2024-01-15T03:21:20;97102.72;;;0.86;100.00
19108;BME280;9686;48.832;9.126;2024-01-15T03:23:45;97100.16;;;0.87;100.00
19108;BME280;9686;48.832;9.126;2024-01-15T03:26:11;97096.81;;;0.91;100.00
19108;BME280;9686;48.832;9.126;2024-01-15T03:28:36;97099.31;;;0.88;100.00
19108;BME280;9686;48.832;9.126;2024-01-15T03:31:02;97102.81;;;0.93;100.00
19108;BME280;9686;48.832;9.126;2024-01-15T03:33:27;97095.13;;;0.95;100.00
19108;BME280;9686;48.832;9.126;2024-01-15T03:35:52;97095.16;;;0.97;100.00
19108;BME280;9686;48.832;9.126;2024-01-15T03:38:18;97094.81;;;1.37;100.00
19108;BME280;9686;48.832;9.126;2024-01-15T03:40:43;97093.25;;;1.50;100.00
19108;BME280;9686;48.832;9.126;2024-01-15T03:43:08;97088.09;;;1.50;100.00
19108;BME280;9686;48.832;9.126;2024-01-15T03:45:34;97089.84;;;1.52;100.00
19108;BME280;9686;48.832;9.126;2024-01-15T03:47:59;97087.28;;;1.52;100.00
19108;BME280;9686;48.832;9.126;2024-01-15T03:50:24;97082.22;;;1.59;100.00
19108;BME280;9686;48.832;9.126;2024-01-15T03:52:50;97079.56;;;1.52;100.00
19108;BME280;9686;48.832;9.126;2024-01-15T03:55:15;97070.28;;;1.62;100.00
19108;BME280;9686;48.832;9.126;2024-01-15T03:57:40;97061.78;;;1.68;100.00
19108;BME280;9686;48.832;9.126;2024-01-15T04:00:07;97065.19;;;1.68;100.00
19108;BME280;9686;48.832;9.126;2024-01-15T04:02:32;97060.66;;;1.44;100.00
19108;BME280;9686;48.832;9.126;2024-01-15T04:04:57;97071.81;;;1.48;100.00
19108;BME280;9686;48.832;9.126;2024-01-15T04:07:23;97065.88;;;1.52;100.00
19108;BME280;9686;48.832;9.126;2024-01-15T04:09:48;97064.13;;;1.49;100.00
19108;BME280;9686;48.832;9.126;2024-01-15T04:12:13;97057.31;;;1.51;100.00
19108;BME280;9686;48.832;9.126;2024-01-15T04:14:38;97066.72;;;1.52;100.00
19108;BME280;9686;48.832;9.126;2024-01-15T04:17:04;97060.84;;;1.60;100.00
19108;BME280;9686;48.832;9.126;2024-01-15T04:19:29;97056.63;;;1.68;100.00
19108;BME280;9686;48.832;9.126;2024-01-15T04:21:55;97056.63;;;1.68;100.00
19108;BME280;9686;48.832;9.126;2024-01-15T04:24:20;97060.94;;;1.70;100.00
19108;BME280;9686;48.832;9.126;2024-01-15T04:26:45;97054.06;;;1.69;100.00
19108;BME280;9686;48.832;9.126;2024-01-15T04:29:10;97051.50;;;1.69;100.00
19108;BME280;9686;48.832;9.126;2024-01-15T04:31:36;97048.97;;;1.72;100.00
19108;BME280;9686;48.832;9.126;2024-01-15T04:34:01;97043.72;;;1.59;100.00
19108;BME280;9686;48.832;9.126;2024-01-15T04:36:26;97045.72;;;1.92;100.00
19108;BME280;9686;48.832;9.126;2024-01-15T04:38:52;97039.00;;;2.07;100.00
19108;BME280;9686;48.832;9.126;2024-01-15T04:41:17;97040.00;;;2.23;100.00
19108;BME280;9686;48.832;9.126;2024-01-15T04:43:42;97048.53;;;2.21;100.00
19108;BME280;9686;48.832;9.126;2024-01-15T04:46:08;97036.50;;;2.15;100.00
19108;BME280;9686;48.832;9.126;2024-01-15T04:48:33;97033.06;;;2.13;100.00
19108;BME280;9686;48.832;9.126;2024-01-15T04:50:58;97038.19;;;2.10;100.00
19108;BME280;9686;48.832;9.126;2024-01-15T04:53:24;97040.72;;;2.07;100.00
19108;BME280;9686;48.832;9.126;2024-01-15T04:55:50;97045.94;;;2.17;100.00
19108;BME280;9686;48.832;9.126;2024-01-15T04:58:15;97039.09;;;2.16;100.00
19108;BME280;9686;48.832;9.126;2024-01-15T05:00:40;97035.63;;;2.13;100.00
19108;BME280;9686;48.832;9.126;2024-01-15T05:03:05;97028.00;;;2.24;100.00
19108;BME280;9686;48.832;9.126;2024-01-15T05:05:31;97039.94;;;2.14;100.00
19108;BME280;9686;48.832;9.126;2024-01-15T05:07:56;97040.00;;;2.25;100.00
19108;BME280;9686;48.832;9.126;2024-01-15T05:10:21;97042.63;;;2.32;100.00
19108;BME280;9686;48.832;9.126;2024-01-15T05:12:46;97040.94;;;2.34;100.00
19108;BME280;9686;48.832;9.126;2024-01-15T05:15:12;97046.94;;;2.35;100.00
19108;BME280;9686;48.832;9.126;2024-01-15T05:17:37;97038.28;;;2.25;100.00
19108;BME280;9686;48.832;9.126;2024-01-15T05:20:03;97029.78;;;2.34;100.00
19108;BME280;9686;48.832;9.126;2024-01-15T05:22:28;97037.47;;;2.34;100.00
19108;BME280;9686;48.832;9.126;2024-01-15T05:24:53;97028.91;;;2.33;100.00
19108;BME280;9686;48.832;9.126;2024-01-15T05:27:19;97025.56;;;2.45;100.00
19108;BME280;9686;48.832;9.126;2024-01-15T05:29:44;97015.34;;;2.53;100.00
19108;BME280;9686;48.832;9.126;2024-01-15T05:32:09;97010.91;;;2.30;100.00
19108;BME280;9686;48.832;9.126;2024-01-15T05:34:35;97013.56;;;2.39;100.00
19108;BME280;9686;48.832;9.126;2024-01-15T05:37:00;97003.28;;;2.41;100.00
19108;BME280;9686;48.832;9.126;2024-01-15T05:39:25;97005.81;;;2.38;100.00
19108;BME280;9686;48.832;9.126;2024-01-15T05:41:51;97014.38;;;2.37;100.00
19108;BME280;9686;48.832;9.126;2024-01-15T05:44:16;97026.31;;;2.29;100.00
19108;BME280;9686;48.832;9.126;2024-01-15T05:46:42;97020.34;;;2.33;100.00
19108;BME280;9686;48.832;9.126;2024-01-15T05:49:07;97025.53;;;2.37;100.00
19108;BME280;9686;48.832;9.126;2024-01-15T05:51:32;97035.03;;;2.47;100.00
19108;BME280;9686;48.832;9.126;2024-01-15T05:53:57;97032.34;;;2.32;100.00
19108;BME280;9686;48.832;9.126;2024-01-15T05:56:23;97043.53;;;2.37;100.00
19108;BME280;9686;48.832;9.126;2024-01-15T05:58:49;97041.03;;;2.50;100.00
19108;BME280;9686;48.832;9.126;2024-01-15T06:01:14;97035.03;;;2.47;100.00
19108;BME280;9686;48.832;9.126;2024-01-15T06:03:40;97033.34;;;2.57;100.00
19108;BME280;9686;48.832;9.126;2024-01-15T06:06:05;97021.31;;;2.48;100.00
19108;BME280;9686;48.832;9.126;2024-01-15T06:08:30;97024.75;;;2.54;100.00
19108;BME280;9686;48.832;9.126;2024-01-15T06:10:56;97020.44;;;2.43;100.00
19108;BME280;9686;48.832;9.126;2024-01-15T06:13:22;97022.16;;;2.47;100.00
19108;BME280;9686;48.832;9.126;2024-01-15T06:15:47;97017.00;;;2.43;100.00
19108;BME280;9686;48.832;9.126;2024-01-15T06:18:12;97013.56;;;2.41;100.00
19108;BME280;9686;48.832;9.126;2024-01-15T06:20:38;97016.91;;;2.34;100.00
19108;BME280;9686;48.832;9.126;2024-01-15T06:23:03;97016.16;;;2.47;100.00
19108;BME280;9686;48.832;9.126;2024-01-15T06:25:29;97007.59;;;2.48;100.00
19108;BME280;9686;48.832;9.126;2024-01-15T06:27:54;97009.25;;;2.38;100.00
19108;BME280;9686;48.832;9.126;2024-01-15T06:30:19;97005.00;;;2.45;100.00
19108;BME280;9686;48.832;9.126;2024-01-15T06:32:44;97010.16;;;2.48;100.00
19108;BME280;9686;48.832;9.126;2024-01-15T06:35:10;96988.75;;;2.49;100.00
19108;BME280;9686;48.832;9.126;2024-01-15T06:37:36;96993.00;;;2.41;100.00
19108;BME280;9686;48.832;9.126;2024-01-15T06:40:02;96984.41;;;2.42;100.00
19108;BME280;9686;48.832;9.126;2024-01-15T06:42:28;96981.00;;;2.41;100.00
19108;BME280;9686;48.832;9.126;2024-01-15T06:44:53;96982.69;;;2.39;100.00
19108;BME280;9686;48.832;9.126;2024-01-15T06:47:18;96983.56;;;2.43;100.00
19108;BME280;9686;48.832;9.126;2024-01-15T06:49:44;96991.31;;;2.49;100.00
19108;BME280;9686;48.832;9.126;2024-01-15T06:52:09;96989.63;;;2.57;100.00
19108;BME280;9686;48.832;9.126;2024-01-15T06:54:34;96990.47;;;2.53;100.00
19108;BME280;9686;48.832;9.126;2024-01-15T06:57:00;96991.34;;;2.55;100.00
19108;BME280;9686;48.832;9.126;2024-01-15T06:59:25;96987.03;;;2.51;100.00
19108;BME280;9686;48.832;9.126;2024-01-15T07:01:50;96992.19;;;2.53;100.00
19108;BME280;9686;48.832;9.126;2024-01-15T07:04:16;96987.91;;;2.58;100.00
19108;BME280;9686;48.832;9.126;2024-01-15T07:06:41;96988.75;;;2.49;100.00
19108;BME280;9686;48.832;9.126;2024-01-15T07:09:06;97000.69;;;2.39;100.00
19108;BME280;9686;48.832;9.126;2024-01-15T07:11:33;96993.00;;;2.45;100.00
19108;BME280;9686;48.832;9.126;2024-01-15T07:13:58;96993.06;;;2.56;100.00
19108;BME280;9686;48.832;9.126;2024-01-15T07:16:24;96992.19;;;2.56;100.00
19108;BME280;9686;48.832;9.126;2024-01-15T07:18:49;96989.69;;;2.62;100.00
19108;BME280;9686;48.832;9.126;2024-01-15T07:21:14;96993.03;;;2.50;100.00
19108;BME280;9686;48.832;9.126;2024-01-15T07:23:40;96999.91;;;2.57;100.00
19108;BME280;9686;48.832;9.126;2024-01-15T07:26:05;96993.91;;;2.52;100.00
19108;BME280;9686;48.832;9.126;2024-01-15T07:28:31;97005.94;;;2.58;100.00
19108;BME280;9686;48.832;9.126;2024-01-15T07:30:57;96995.63;;;2.56;100.00
19108;BME280;9686;48.832;9.126;2024-01-15T07:33:22;97001.63;;;2.54;100.00
19108;BME280;9686;48.832;9.126;2024-01-15T07:35:47;97005.03;;;2.50;100.00
19108;BME280;9686;48.832;9.126;2024-01-15T07:38:12;97012.84;;;2.65;100.00
19108;BME280;9686;48.832;9.126;2024-01-15T07:40:38;97012.00;;;2.64;100.00
19108;BME280;9686;48.832;9.126;2024-01-15T07:43:03;97011.16;;;2.70;100.00
19108;BME280;9686;48.832;9.126;2024-01-15T07:45:29;97008.59;;;2.76;100.00
19108;BME280;9686;48.832;9.126;2024-01-15T07:47:54;97008.59;;;2.76;100.00
19108;BME280;9686;48.832;9.126;2024-01-15T07:50:19;97011.16;;;2.74;100.00
19108;BME280;9686;48.832;9.126;2024-01-15T07:52:45;97007.75;;;2.77;100.00
19108;BME280;9686;48.832;9.126;2024-01-15T07:55:10;97008.69;;;2.87;100.00
19108;BME280;9686;48.832;9.126;2024-01-15T07:57:36;97001.81;;;2.92;100.00
19108;BME280;9686;48.832;9.126;2024-01-15T08:00:02;96995.75;;;2.84;100.00
19108;BME280;9686;48.832;9.126;2024-01-15T08:02:30;97002.72;;;3.04;100.00
19108;BME280;9686;48.832;9.126;2024-01-15T08:04:55;97000.09;;;2.89;100.00
19108;BME280;9686;48.832;9.126;2024-01-15T08:07:21;96996.69;;;2.93;100.00
19108;BME280;9686;48.832;9.126;2024-01-15T08:09:46;97004.31;;;2.72;100.00
19108;BME280;9686;48.832;9.126;2024-01-15T08:12:14;97012.09;;;2.87;100.00
19108;BME280;9686;48.832;9.126;2024-01-15T08:14:39;97000.91;;;2.85;100.00
19108;BME280;9686;48.832;9.126;2024-01-15T08:17:04;97003.53;;;2.90;99.74
19108;BME280;9686;48.832;9.126;2024-01-15T08:19:29;96997.56;;;3.00;100.00
19108;BME280;9686;48.832;9.126;2024-01-15T08:21:55;97013.00;;;2.98;96.69
19108;BME280;9686;48.832;9.126;2024-01-15T08:24:20;97006.97;;;2.93;94.55
19108;BME280;9686;48.832;9.126;2024-01-15T08:26:45;97008.72;;;3.02;93.60
19108;BME280;9686;48.832;9.126;2024-01-15T08:29:11;96999.31;;;3.10;93.81
19108;BME280;9686;48.832;9.126;2024-01-15T08:31:36;97006.97;;;2.89;92.63
19108;BME280;9686;48.832;9.126;2024-01-15T08:34:01;97007.88;;;3.07;92.47
19108;BME280;9686;48.832;9.126;2024-01-15T08:36:27;97007.06;;;3.16;90.67
19108;BME280;9686;48.832;9.126;2024-01-15T08:38:54;97007.88;;;3.10;90.85
19108;BME280;9686;48.832;9.126;2024-01-15T08:41:20;97005.34;;;3.17;90.47
19108;BME280;9686;48.832;9.126;2024-01-15T08:43:45;97008.81;;;3.23;90.57
19108;BME280;9686;48.832;9.126;2024-01-15T08:46:10;97002.81;;;3.38;89.65
19108;BME280;9686;48.832;9.126;2024-01-15T08:48:36;97001.09;;;3.31;88.55
19108;BME280;9686;48.832;9.126;2024-01-15T08:51:01;96997.66;;;3.38;88.80
19108;BME280;9686;48.832;9.126;2024-01-15T08:53:27;97001.97;;;3.37;89.11
19108;BME280;9686;48.832;9.126;2024-01-15T08:55:53;97005.44;;;3.59;87.69
19108;BME280;9686;48.832;9.126;2024-01-15T08:58:18;97013.16;;;3.47;86.38
19108;BME280;9686;48.832;9.126;2024-01-15T09:00:44;97011.50;;;3.64;85.35
19108;BME280;9686;48.832;9.126;2024-01-15T09:03:09;97014.91;;;3.63;82.99
19108;BME280;9686;48.832;9.126;2024-01-15T09:05:35;97003.78;;;3.67;81.27
19108;BME280;9686;48.832;9.126;2024-01-15T09:08:00;97007.16;;;3.54;81.26
19108;BME280;9686;48.832;9.126;2024-01-15T09:10:25;96996.00;;;3.51;81.60
19108;BME280;9686;48.832;9.126;2024-01-15T09:12:51;97007.16;;;3.57;82.15
19108;BME280;9686;48.832;9.126;2024-01-15T09:15:16;97002.00;;;3.57;82.31
19108;BME280;9686;48.832;9.126;2024-01-15T09:17:42;96994.28;;;3.63;83.49
19108;BME280;9686;48.832;9.126;2024-01-15T09:20:08;96992.59;;;3.67;84.63
19108;BME280;9686;48.832;9.126;2024-01-15T09:22:34;96986.59;;;3.79;84.54
19108;BME280;9686;48.832;9.126;2024-01-15T09:24:59;96978.00;;;3.77;84.90
19108;BME280;9686;48.832;9.126;2024-01-15T09:27:25;96966.84;;;3.93;83.07
19108;BME280;9686;48.832;9.126;2024-01-15T09:29:53;96968.56;;;3.92;83.61
19108;BME280;9686;48.832;9.126;2024-01-15T09:32:19;96967.72;;;3.90;81.98
19108;BME280;9686;48.832;9.126;2024-01-15T09:34:45;96977.16;;;3.93;80.36
19108;BME280;9686;48.832;9.126;2024-01-15T09:37:11;96982.28;;;4.07;80.20
19108;BME280;9686;48.832;9.126;2024-01-15T09:39:36;96982.28;;;4.16;79.21
19108;BME280;9686;48.832;9.126;2024-01-15T09:42:02;96981.44;;;4.06;78.26
19108;BME280;9686;48.832;9.126;2024-01-15T09:44:28;96982.28;;;4.11;77.93
19108;BME280;9686;48.832;9.126;2024-01-15T09:46:55;96981.44;;;4.09;77.44
19108;BME280;9686;48.832;9.126;2024-01-15T09:49:21;96983.16;;;4.04;77.56
19108;BME280;9686;48.832;9.126;2024-01-15T09:51:47;96985.72;;;3.87;78.25
19108;BME280;9686;48.832;9.126;2024-01-15T09:54:12;96978.00;;;4.06;79.29
19108;BME280;9686;48.832;9.126;2024-01-15T09:56:38;96971.97;;;4.08;78.37
19108;BME280;9686;48.832;9.126;2024-01-15T09:59:04;96961.69;;;3.97;78.93
19108;BME280;9686;48.832;9.126;2024-01-15T10:01:31;96958.25;;;3.94;79.19
19108;BME280;9686;48.832;9.126;2024-01-15T10:03:56;96959.97;;;3.99;78.61
19108;BME280;9686;48.832;9.126;2024-01-15T10:06:22;96958.22;;;3.60;81.35
19108;BME280;9686;48.832;9.126;2024-01-15T10:08:49;96953.94;;;3.59;83.46
19108;BME280;9686;48.832;9.126;2024-01-15T10:11:15;96953.94;;;3.59;85.76
19108;BME280;9686;48.832;9.126;2024-01-15T10:13:43;96953.09;;;3.66;85.29
19108;BME280;9686;48.832;9.126;2024-01-15T10:16:08;96945.38;;;3.71;85.11
19108;BME280;9686;48.832;9.126;2024-01-15T10:18:34;96951.38;;;3.65;84.34
19108;BME280;9686;48.832;9.126;2024-01-15T10:21:02;96953.94;;;3.82;84.24
19108;BME280;9686;48.832;9.126;2024-01-15T10:23:27;96951.38;;;3.78;83.47
19108;BME280;9686;48.832;9.126;2024-01-15T10:25:53;96938.50;;;3.73;83.48
19108;BME280;9686;48.832;9.126;2024-01-15T10:28:19;96940.19;;;3.59;82.89
19108;BME280;9686;48.832;9.126;2024-01-15T10:30:44;96928.19;;;3.68;81.31
19108;BME280;9686;48.832;9.126;2024-01-15T10:33:10;96926.44;;;3.52;82.69
19108;BME280;9686;48.832;9.126;2024-01-15T10:35:37;96917.88;;;3.52;84.15
19108;BME280;9686;48.832;9.126;2024-01-15T10:38:03;96911.84;;;3.60;84.84
19108;BME280;9686;48.832;9.126;2024-01-15T10:40:30;96900.69;;;3.90;82.10
19108;BME280;9686;48.832;9.126;2024-01-15T10:42:56;96897.22;;;3.99;81.26
19108;BME280;9686;48.832;9.126;2024-01-15T10:45:22;96894.63;;;4.03;81.38
19108;BME280;9686;48.832;9.126;2024-01-15T10:47:47;96897.19;;;4.10;80.73
19108;BME280;9686;48.832;9.126;2024-01-15T10:50:14;96904.97;;;3.81;82.36
19108;BME280;9686;48.832;9.126;2024-01-15T10:52:40;96891.25;;;3.72;85.39
19108;BME280;9686;48.832;9.126;2024-01-15T10:55:09;96896.38;;;3.83;87.74
19108;BME280;9686;48.832;9.126;2024-01-15T10:57:36;96898.97;;;3.72;88.81
19108;BME280;9686;48.832;9.126;2024-01-15T11:00:02;96900.69;;;3.69;91.03
19108;BME280;9686;48.832;9.126;2024-01-15T11:02:34;96890.38;;;3.74;96.22
19108;BME280;9686;48.832;9.126;2024-01-15T11:05:00;96887.78;;;4.01;97.26
19108;BME280;9686;48.832;9.126;2024-01-15T11:07:26;96895.50;;;3.99;95.79
19108;BME280;9686;48.832;9.126;2024-01-15T11:09:52;96898.94;;;3.89;100.00
19108;BME280;9686;48.832;9.126;2024-01-15T11:12:17;96901.56;;;3.71;100.00
19108;BME280;9686;48.832;9.126;2024-01-15T11:14:47;96892.09;;;3.52;100.00
19108;BME280;9686;48.832;9.126;2024-01-15T11:17:14;96898.97;;;3.54;100.00
19108;BME280;9686;48.832;9.126;2024-01-15T11:19:45;96898.09;;;3.60;100.00
19108;BME280;9686;48.832;9.126;2024-01-15T11:24:57;96886.97;;;3.39;100.00
19108;BME280;9686;48.832;9.126;2024-01-15T11:27:41;96880.09;;;3.42;100.00
19108;BME280;9686;48.832;9.126;2024-01-15T11:30:11;96892.09;;;3.17;100.00
19108;BME280;9686;48.832;9.126;2024-01-15T11:32:37;96886.91;;;3.03;100.00
19108;BME280;9686;48.832;9.126;2024-01-15T11:35:02;96874.88;;;3.11;100.00
19108;BME280;9686;48.832;9.126;2024-01-15T11:37:56;96882.63;;;3.11;100.00
19108;BME280;9686;48.832;9.126;2024-01-15T11:40:17;96865.44;;;3.04;100.00
19108;BME280;9686;48.832;9.126;2024-01-15T11:42:44;96874.88;;;3.02;100.00
19108;BME280;9686;48.832;9.126;2024-01-15T11:45:10;96879.13;;;2.83;100.00
19108;BME280;9686;48.832;9.126;2024-01-15T11:50:33;96888.63;;;3.08;100.00
19108;BME280;9686;48.832;9.126;2024-01-15T11:53:02;96884.38;;;3.20;100.00
19108;BME280;9686;48.832;9.126;2024-01-15T11:55:32;96878.34;;;3.16;100.00
19108;BME280;9686;48.832;9.126;2024-01-15T11:58:00;96887.75;;;3.06;100.00
19108;BME280;9686;48.832;9.126;2024-01-15T12:00:26;96892.91;;;3.11;100.00
19108;BME280;9686;48.832;9.126;2024-01-15T12:02:51;96890.31;;;2.93;100.00
19108;BME280;9686;48.832;9.126;2024-01-15T12:05:19;96892.06;;;3.12;100.00
19108;BME280;9686;48.832;9.126;2024-01-15T12:07:46;96887.75;;;3.00;100.00
19108;BME280;9686;48.832;9.126;2024-01-15T12:10:14;96878.25;;;2.84;100.00
19108;BME280;9686;48.832;9.126;2024-01-15T12:15:15;96887.69;;;2.71;100.00
19108;BME280;9686;48.832;9.126;2024-01-15T12:17:40;96884.25;;;2.82;100.00
19108;BME280;9686;48.832;9.126;2024-01-15T12:20:06;96886.84;;;2.77;100.00
19108;BME280;9686;48.832;9.126;2024-01-15T12:22:31;96890.25;;;2.79;100.00
19108;BME280;9686;48.832;9.126;2024-01-15T12:24:57;96892.03;;;2.89;100.00
19108;BME280;9686;48.832;9.126;2024-01-15T12:27:22;96897.19;;;3.04;100.00
19108;BME280;9686;48.832;9.126;2024-01-15T12:29:48;96888.63;;;3.07;100.00
19108;BME280;9686;48.832;9.126;2024-01-15T12:32:13;96892.09;;;3.15;100.00
19108;BME280;9686;48.832;9.126;2024-01-15T12:34:38;96900.63;;;2.93;100.00
19108;BME280;9686;48.832;9.126;2024-01-15T12:37:04;96893.69;;;2.78;100.00
19108;BME280;9686;48.832;9.126;2024-01-15T12:39:29;96901.47;;;2.87;100.00
19108;BME280;9686;48.832;9.126;2024-01-15T12:41:55;96908.31;;;2.87;100.00
19108;BME280;9686;48.832;9.126;2024-01-15T12:44:20;96912.56;;;2.74;100.00
19108;BME280;9686;48.832;9.126;2024-01-15T12:46:46;96904.81;;;2.69;100.00
19108;BME280;9686;48.832;9.126;2024-01-15T12:49:13;96913.47;;;2.88;100.00
19108;BME280;9686;48.832;9.126;2024-01-15T12:51:38;96905.78;;;3.03;100.00
19108;BME280;9686;48.832;9.126;2024-01-15T12:54:04;96904.91;;;2.94;100.00
19108;BME280;9686;48.832;9.126;2024-01-15T12:56:29;96909.19;;;2.93;100.00
19108;BME280;9686;48.832;9.126;2024-01-15T12:58:54;96919.50;;;2.98;100.00
19108;BME280;9686;48.832;9.126;2024-01-15T13:01:19;96914.34;;;2.92;100.00
19108;BME280;9686;48.832;9.126;2024-01-15T13:04:09;96915.19;;;3.00;100.00
19108;BME280;9686;48.832;9.126;2024-01-15T13:06:35;96910.91;;;3.05;100.00
19108;BME280;9686;48.832;9.126;2024-01-15T13:09:00;96922.06;;;3.01;100.00
19108;BME280;9686;48.832;9.126;2024-01-15T13:11:27;96927.13;;;2.78;100.00
19108;BME280;9686;48.832;9.126;2024-01-15T13:13:52;96937.31;;;2.54;100.00
19108;BME280;9686;48.832;9.126;2024-01-15T13:16:17;96940.06;;;2.89;100.00